Главная страница
METAR-TAF:

METAR-TAF

Аэропорты :

Lutselk'e, Северо-Западные Территории, Канада

широта: 62-25N, долгота: 110-40W, высота над уровнем моря: 179 м

Текущие метеонаблюдения

Эта сводка был подготовлена 14 часа и 30 минут назад, в 00:00 UTC
Ветер 3 Узел от западный
Температура 19°C
Влажность 52%
Давление 1003 hPa
Видимость: 24.1 км
небольшая облачность на высоте 6000 фута, мощно-кучевые.
Рассеянная облачность на высоте 22000 фута

METAR: CYLK 180000Z 27003KT 15SM FEW060TCU BKN220 19/09 A2963 RMK TCU1CI6 FU LAST STFD OBS/NEXT 181500 UTC SLP043 DENSITY ALT 1600FT

Время: 08:30 (14:30 UTC)

Прогноз

Эта сводка был подготовлена 19 часа и 45 минут назад, в 18:45 UTC
Прогноз действительный с 17-го 19 UTC до 17-го 24 UTC
Ветер 5 Узел от западный-юго-западный
Видимость: 10 км
небольшая облачность на высоте 4000 фута

TAF: CYLK 171845Z 1719/1724 25005KT P6SM FEW040 RMK NXT FCST WILL BE ISSUED AT 181645Z

Метеонаблюдения и прогнозы для более 4000 аэропортов (сводки METAR и TAF).

Имеющиеся станции представлены на карте желтыми и красными точками.

Чтобы увидеть название станции, наведите на нее мышь.

Затем щелкните, чтобы увидеть метеонаблюдения и метеопрогнозы.

Управление картой: чтобы увеличить масштаб, щелкните зеленые кнопки с черным крестиком; чтобы уменьшить масштаб, щелкните зеленую кнопку с тире; для просмотра соседних карт щелкайте зеленые стрелки.


METAR-TAF: